Time;durP1;ratioP1;P1;durP2;ratioP2;P2;SDS_P1;SDS_P2;PMS_P1;PMS_P2;Temp;Humidity;BMP_temperature;BMP_pressure;BME280_temperature;BME280_humidity;BME280_pressure;Samples;Min_cycle;Max_cycle;Signal;HPM_P1;HPM_P2
2022/12/11 00:01:12;;;;;;;17.67;7.13;;;;;;;-0.81;89.27;100605.63;5073971;28;20442;-69
2022/12/11 00:03:39;;;;;;;22.57;7.87;;;;;;;-0.73;89.30;100598.41;5055346;28;20540;-69
2022/12/11 00:06:07;;;;;;;16.70;7.30;;;;;;;-0.69;88.85;100591.59;5055526;28;20462;-69
2022/12/11 00:08:33;;;;;;;19.33;7.67;;;;;;;-0.70;88.67;100592.63;5060396;28;20458;-69
2022/12/11 00:11:00;;;;;;;13.70;6.83;;;;;;;-0.78;89.18;100589.25;5056409;28;20450;-69
2022/12/11 00:13:27;;;;;;;18.87;7.73;;;;;;;-0.80;89.86;100578.03;5054190;28;20573;-69
2022/12/11 00:15:53;;;;;;;15.60;6.27;;;;;;;-0.78;90.26;100580.47;5055484;28;20497;-69
2022/12/11 00:18:21;;;;;;;23.73;7.07;;;;;;;-0.84;90.65;100587.50;5058648;28;20490;-69
2022/12/11 00:20:48;;;;;;;16.50;7.30;;;;;;;-0.83;90.50;100583.00;5055082;28;20478;-69
2022/12/11 00:23:14;;;;;;;15.50;7.30;;;;;;;-0.79;90.23;100577.00;5054355;28;20462;-69
2022/12/11 00:25:42;;;;;;;18.90;7.10;;;;;;;-0.74;90.23;100575.50;5055257;28;20473;-69
2022/12/11 00:28:09;;;;;;;19.40;6.60;;;;;;;-0.74;90.25;100578.97;5053373;28;20962;-69
2022/12/11 00:30:38;;;;;;;15.47;7.03;;;;;;;-0.77;89.51;100580.22;5055306;28;20537;-69
2022/12/11 00:33:05;;;;;;;16.23;6.03;;;;;;;-0.83;90.04;100570.50;5052966;28;20520;-69
2022/12/11 00:35:33;;;;;;;15.33;6.70;;;;;;;-0.80;89.57;100574.53;5054639;28;20470;-69
2022/12/11 00:38:00;;;;;;;16.40;6.60;;;;;;;-0.81;89.70;100567.63;5055036;28;20542;-69
2022/12/11 00:40:26;;;;;;;18.30;6.03;;;;;;;-0.88;90.80;100572.22;5053988;28;20494;-69
2022/12/11 00:42:53;;;;;;;14.30;6.30;;;;;;;-0.80;89.78;100572.72;5054507;28;20541;-69
2022/12/11 00:45:19;;;;;;;24.47;7.77;;;;;;;-0.85;89.54;100564.59;5053296;28;20485;-69
2022/12/11 00:47:46;;;;;;;17.23;7.40;;;;;;;-0.86;90.42;100564.81;5054625;28;20486;-69
2022/12/11 00:50:12;;;;;;;17.00;6.23;;;;;;;-0.91;90.71;100573.47;5054809;28;20438;-69
2022/12/11 00:52:40;;;;;;;23.47;7.03;;;;;;;-0.90;90.93;100569.78;5053588;28;20862;-69
2022/12/11 00:55:07;;;;;;;15.10;6.77;;;;;;;-0.87;90.20;100566.69;5059171;28;20569;-69
2022/12/11 00:57:34;;;;;;;19.87;7.10;;;;;;;-0.91;91.55;100573.47;5074550;28;20484;-69
2022/12/11 01:00:01;;;;;;;15.20;6.83;;;;;;;-0.91;91.29;100568.16;5048636;28;21001;-69
2022/12/11 01:02:27;;;;;;;17.40;5.93;;;;;;;-0.88;90.83;100573.03;5074646;28;20480;-69
2022/12/11 01:04:54;;;;;;;17.87;7.63;;;;;;;-0.87;91.13;100571.19;5068561;28;20675;-69
2022/12/11 01:07:20;;;;;;;20.40;6.50;;;;;;;-0.85;91.14;100566.44;5056173;28;20498;-71
2022/12/11 01:12:44;;;;;;;13.37;6.20;;;;;;;-0.88;90.77;100581.00;4971796;28;20560;-72
2022/12/11 01:15:11;;;;;;;19.67;7.53;;;;;;;-0.84;90.65;100570.72;5034769;28;20896;-71
2022/12/11 01:17:38;;;;;;;14.63;7.17;;;;;;;-0.86;90.62;100578.94;5058912;28;20959;-71
2022/12/11 01:20:05;;;;;;;19.70;8.00;;;;;;;-0.98;91.46;100582.56;5061376;28;21025;-71
2022/12/11 01:22:32;;;;;;;15.23;7.70;;;;;;;-0.97;92.14;100577.03;5057874;28;20460;-71
2022/12/11 01:25:00;;;;;;;19.27;7.70;;;;;;;-0.91;91.79;100583.31;5052395;28;21014;-71
2022/12/11 01:27:26;;;;;;;25.60;8.77;;;;;;;-0.88;91.63;100580.19;5053547;28;20498;-71
2022/12/11 01:29:53;;;;;;;16.10;7.67;;;;;;;-0.81;91.12;100583.56;5054146;28;20475;-71
2022/12/11 01:32:19;;;;;;;16.70;6.80;;;;;;;-0.84;90.23;100590.16;5053013;28;20573;-71
2022/12/11 01:34:46;;;;;;;19.40;7.70;;;;;;;-0.87;90.43;100585.28;5052422;28;20569;-71
2022/12/11 01:37:13;;;;;;;18.43;8.17;;;;;;;-0.83;90.19;100578.47;5053605;28;20452;-71
2022/12/11 01:39:39;;;;;;;14.37;6.50;;;;;;;-0.82;90.57;100573.97;5053164;28;20462;-71
2022/12/11 01:42:11;;;;;;;17.97;6.30;;;;;;;-0.87;91.87;100574.66;5053885;28;20442;-71
2022/12/11 01:45:26;;;;;;;17.63;7.83;;;;;;;-0.83;92.14;100569.69;5051960;28;20489;-70
2022/12/11 01:47:59;;;;;;;13.50;5.83;;;;;;;-1.05;91.28;100577.34;5053674;28;20513;-69
2022/12/11 01:50:27;;;;;;;19.00;6.57;;;;;;;-1.03;92.24;100580.59;5056278;28;20627;-69
2022/12/11 01:52:54;;;;;;;15.43;6.43;;;;;;;-1.05;92.05;100583.47;5073299;28;20477;-69
2022/12/11 01:55:21;;;;;;;21.17;6.73;;;;;;;-0.96;92.14;100576.00;5056446;28;20931;-69
2022/12/11 01:57:51;;;;;;;11.67;6.10;;;;;;;-0.97;92.09;100582.38;5061243;28;20901;-69
2022/12/11 02:00:18;;;;;;;18.37;7.63;;;;;;;-0.98;92.46;100579.91;5056870;28;20845;-69
2022/12/11 02:02:45;;;;;;;17.90;6.93;;;;;;;-0.96;91.85;100576.00;5070172;28;20445;-70
2022/12/11 02:05:12;;;;;;;20.97;8.27;;;;;;;-0.95;92.66;100574.16;5052251;28;20558;-69
2022/12/11 02:07:42;;;;;;;16.77;6.70;;;;;;;-0.88;92.40;100567.72;5053335;28;20442;-69
2022/12/11 02:10:11;;;;;;;12.77;6.53;;;;;;;-0.88;92.58;100573.03;5054032;28;20454;-68
2022/12/11 02:12:47;;;;;;;15.20;6.60;;;;;;;-0.78;92.65;100567.16;5068118;28;20839;-69
2022/12/11 02:15:24;;;;;;;17.20;7.53;;;;;;;-0.77;92.52;100580.22;5059663;28;20486;-69
2022/12/11 02:17:59;;;;;;;19.93;6.73;;;;;;;-0.83;91.88;100575.81;5051280;28;20541;-70
2022/12/11 02:20:30;;;;;;;21.07;6.23;;;;;;;-0.80;92.11;100578.03;5065029;28;20536;-69
2022/12/11 02:23:28;;;;;;;22.03;7.80;;;;;;;-0.79;91.91;100587.63;5051370;28;20458;-69
2022/12/11 02:26:03;;;;;;;14.57;6.40;;;;;;;-0.77;91.36;100582.88;5037187;28;20546;-69
2022/12/11 02:28:36;;;;;;;18.27;6.37;;;;;;;-0.72;91.65;100594.69;5051834;28;20491;-69
2022/12/11 02:31:07;;;;;;;16.77;7.10;;;;;;;-0.71;92.00;100586.47;5033200;28;20523;-69
2022/12/11 02:33:39;;;;;;;15.73;6.37;;;;;;;-0.71;92.68;100583.00;5034066;28;21003;-69
2022/12/11 02:36:08;;;;;;;12.70;5.77;;;;;;;-0.70;91.84;100579.34;5051889;28;20488;-70
2022/12/11 02:38:39;;;;;;;18.47;6.63;;;;;;;-0.71;92.19;100572.38;5051890;28;20529;-69
2022/12/11 02:41:08;;;;;;;15.77;6.83;;;;;;;-0.75;92.18;100566.72;5052704;28;20935;-69
2022/12/11 02:43:38;;;;;;;16.03;7.37;;;;;;;-0.76;92.82;100570.41;5051967;28;20514;-69
2022/12/11 02:46:07;;;;;;;18.80;6.80;;;;;;;-0.80;92.98;100575.38;5052979;28;20504;-69
2022/12/11 02:48:35;;;;;;;16.63;7.40;;;;;;;-0.73;92.94;100564.63;5052016;28;20438;-69
2022/12/11 02:51:05;;;;;;;22.13;8.10;;;;;;;-0.76;93.29;100573.88;5050992;28;20533;-69
2022/12/11 02:53:35;;;;;;;15.57;7.13;;;;;;;-0.64;92.84;100573.09;5060076;28;20489;-70
2022/12/11 02:56:08;;;;;;;21.00;6.83;;;;;;;-0.56;92.07;100568.28;5072144;28;20564;-67
2022/12/11 02:58:42;;;;;;;16.53;6.70;;;;;;;-0.65;91.74;100580.28;5054040;28;20891;-70
2022/12/11 03:01:09;;;;;;;13.60;6.10;;;;;;;-0.70;91.87;100572.16;5064456;28;20548;-70
2022/12/11 03:03:36;;;;;;;14.63;7.20;;;;;;;-0.65;91.85;100577.63;5074916;28;20524;-70
2022/12/11 03:06:03;;;;;;;13.17;7.30;;;;;;;-0.60;91.82;100569.75;5059059;28;20898;-70
2022/12/11 03:08:30;;;;;;;18.53;7.80;;;;;;;-0.66;91.47;100575.19;5056801;28;20479;-68
2022/12/11 03:10:56;;;;;;;22.60;8.70;;;;;;;-0.72;92.31;100581.41;5053594;28;20506;-70
2022/12/11 03:13:24;;;;;;;22.03;7.93;;;;;;;-0.77;92.70;100572.25;5074606;28;20576;-70
2022/12/11 03:16:04;;;;;;;18.10;6.80;;;;;;;-0.78;92.67;100578.59;5062182;28;20556;-69
2022/12/11 03:18:38;;;;;;;16.33;6.97;;;;;;;-0.79;93.61;100576.19;5057032;28;20425;-70
2022/12/11 03:21:08;;;;;;;17.73;6.90;;;;;;;-0.69;93.37;100580.97;5055556;28;20458;-70
2022/12/11 03:23:43;;;;;;;19.53;8.20;;;;;;;-0.56;93.09;100572.78;5060429;28;20540;-70
2022/12/11 03:26:12;;;;;;;16.57;7.17;;;;;;;-0.55;92.83;100577.88;5056006;28;20556;-70
2022/12/11 03:28:45;;;;;;;19.13;7.00;;;;;;;-0.54;92.14;100578.66;5056439;28;20445;-70
2022/12/11 03:31:16;;;;;;;15.93;7.63;;;;;;;-0.64;92.58;100583.75;5053818;28;20834;-70
2022/12/11 03:33:48;;;;;;;16.57;7.03;;;;;;;-0.65;92.66;100576.81;5073146;28;20475;-70
2022/12/11 03:36:22;;;;;;;15.87;6.57;;;;;;;-0.68;93.25;100577.25;5058987;28;20533;-70
2022/12/11 03:38:52;;;;;;;13.87;7.10;;;;;;;-0.60;92.73;100579.59;5056251;28;20525;-70
2022/12/11 03:41:22;;;;;;;23.30;8.07;;;;;;;-0.63;92.25;100577.38;5064537;28;20453;-70
2022/12/11 03:43:51;;;;;;;15.10;7.07;;;;;;;-0.67;92.88;100576.22;5076215;28;20464;-70
2022/12/11 03:46:22;;;;;;;17.60;7.10;;;;;;;-0.68;92.07;100588.69;5056773;28;20485;-70
2022/12/11 03:48:50;;;;;;;27.50;7.50;;;;;;;-0.60;91.70;100576.94;5056191;28;20502;-70
2022/12/11 03:51:17;;;;;;;16.90;7.20;;;;;;;-0.54;92.18;100584.00;5062589;28;20556;-70
2022/12/11 03:53:46;;;;;;;20.10;8.00;;;;;;;-0.65;93.06;100582.13;5075556;28;20564;-70
2022/12/11 03:56:15;;;;;;;25.23;7.00;;;;;;;-0.63;92.33;100572.88;5059047;28;20490;-69
2022/12/11 03:58:42;;;;;;;13.67;6.50;;;;;;;-0.59;92.46;100575.88;5055675;28;20466;-68
2022/12/11 04:01:09;;;;;;;17.87;7.10;;;;;;;-0.62;92.64;100573.66;5065137;28;20493;-69
2022/12/11 04:03:37;;;;;;;14.77;7.67;;;;;;;-0.56;92.48;100567.47;5073526;28;20438;-69
2022/12/11 04:06:04;;;;;;;14.63;6.70;;;;;;;-0.59;92.36;100570.56;5057775;28;20570;-69
2022/12/11 04:08:31;;;;;;;18.50;9.00;;;;;;;-0.57;91.90;100574.63;5073748;28;20515;-69
2022/12/11 04:13:39;;;;;;;17.40;7.03;;;;;;;-0.54;91.06;100587.47;5049704;28;20484;-69
2022/12/11 04:16:05;;;;;;;18.90;7.40;;;;;;;-0.54;91.20;100579.47;5061892;28;20505;-69
2022/12/11 04:24:17;;;;;;;19.50;7.20;;;;;;;-0.68;92.28;100561.28;5058977;28;21002;-69
2022/12/11 04:26:45;;;;;;;13.43;5.60;;;;;;;-0.62;92.31;100571.84;5054117;28;20482;-69
2022/12/11 04:29:11;;;;;;;14.47;6.27;;;;;;;-0.64;92.89;100559.81;5059409;28;20500;-69
2022/12/11 04:31:38;;;;;;;16.00;6.77;;;;;;;-0.64;92.43;100565.94;5059805;28;20553;-69
2022/12/11 04:34:05;;;;;;;17.20;7.53;;;;;;;-0.63;93.13;100559.56;5059487;28;20580;-69
2022/12/11 04:36:33;;;;;;;19.17;7.23;;;;;;;-0.63;93.69;100559.56;5059738;28;20513;-69
2022/12/11 04:38:59;;;;;;;14.50;6.80;;;;;;;-0.64;93.29;100554.47;5057404;28;20553;-69
2022/12/11 04:41:26;;;;;;;21.17;7.30;;;;;;;-0.65;93.67;100547.56;5054207;28;20494;-69
2022/12/11 04:43:52;;;;;;;15.40;6.87;;;;;;;-0.63;93.02;100553.44;5069344;28;20456;-69
2022/12/11 04:46:21;;;;;;;15.60;6.67;;;;;;;-0.70;93.09;100555.41;5066664;28;20552;-69
2022/12/11 04:48:49;;;;;;;22.17;8.67;;;;;;;-0.76;93.29;100560.56;5054281;28;20434;-69
2022/12/11 04:51:16;;;;;;;18.40;8.63;;;;;;;-0.80;94.19;100554.09;5054503;28;20962;-71
2022/12/11 04:53:44;;;;;;;15.93;6.53;;;;;;;-0.78;94.16;100557.34;5052078;28;20482;-71
2022/12/11 04:56:13;;;;;;;18.13;7.30;;;;;;;-0.70;94.17;100561.53;5054310;28;20480;-70
2022/12/11 04:58:40;;;;;;;15.00;6.67;;;;;;;-0.78;95.09;100562.66;5054033;28;20458;-70
2022/12/11 05:01:09;;;;;;;15.80;7.07;;;;;;;-0.76;94.78;100557.91;5054659;28;20816;-71
2022/12/11 05:03:36;;;;;;;16.87;6.90;;;;;;;-0.75;95.34;100561.41;5053277;28;20974;-70
2022/12/11 05:06:02;;;;;;;13.20;6.70;;;;;;;-0.77;95.87;100558.94;5054563;28;20498;-70
2022/12/11 05:08:29;;;;;;;14.50;7.40;;;;;;;-0.73;94.78;100563.81;5053674;28;20542;-71
2022/12/11 05:10:58;;;;;;;18.73;7.43;;;;;;;-0.68;94.21;100563.97;5054288;28;20972;-70
2022/12/11 05:13:25;;;;;;;21.50;6.13;;;;;;;-0.67;93.70;100546.94;5053191;28;20481;-69
2022/12/11 05:15:51;;;;;;;24.03;7.20;;;;;;;-0.65;93.56;100550.22;5054386;28;20470;-69
2022/12/11 05:18:18;;;;;;;14.80;6.70;;;;;;;-0.72;93.94;100547.63;5053966;28;20516;-69
2022/12/11 05:20:45;;;;;;;11.23;6.40;;;;;;;-0.90;94.56;100548.50;5069480;28;20445;-69
2022/12/11 05:23:11;;;;;;;16.83;7.07;;;;;;;-0.93;95.06;100538.34;5061904;28;20541;-68
2022/12/11 05:25:38;;;;;;;15.33;6.83;;;;;;;-0.83;95.21;100543.91;5047128;28;20459;-70
2022/12/11 05:28:06;;;;;;;21.60;6.90;;;;;;;-0.83;96.10;100538.59;5052691;28;21022;-70
2022/12/11 05:30:33;;;;;;;17.47;7.73;;;;;;;-0.76;95.60;100539.28;5057727;28;20452;-69
2022/12/11 05:32:59;;;;;;;12.70;6.13;;;;;;;-0.68;95.58;100543.50;5067590;28;20453;-70
2022/12/11 05:35:26;;;;;;;16.10;6.43;;;;;;;-0.65;94.99;100534.25;5071850;28;20493;-70
2022/12/11 05:37:52;;;;;;;16.93;7.50;;;;;;;-0.77;94.95;100532.38;5058399;28;20484;-70
2022/12/11 05:40:19;;;;;;;31.63;7.33;;;;;;;-0.74;94.87;100527.66;5063989;28;20542;-70
2022/12/11 05:42:45;;;;;;;16.40;7.60;;;;;;;-0.69;95.46;100533.09;5052380;28;20544;-70
2022/12/11 05:45:14;;;;;;;18.40;6.70;;;;;;;-0.80;95.25;100545.28;5071551;28;21065;-70
2022/12/11 05:47:40;;;;;;;22.20;7.60;;;;;;;-0.73;95.51;100539.91;5053561;28;20462;-70
2022/12/11 05:50:08;;;;;;;15.10;6.40;;;;;;;-0.74;94.51;100547.06;5073794;28;20532;-69
2022/12/11 05:52:34;;;;;;;20.40;8.30;;;;;;;-0.66;94.53;100543.28;5053603;28;20557;-71
2022/12/11 05:55:01;;;;;;;17.17;6.60;;;;;;;-0.60;93.53;100543.16;5051380;28;20498;-69
2022/12/11 05:57:28;;;;;;;15.27;6.20;;;;;;;-0.74;93.25;100543.59;5065829;28;20525;-70
2022/12/11 05:59:54;;;;;;;16.80;7.30;;;;;;;-0.81;94.19;100547.16;5052331;28;20837;-70
2022/12/11 06:02:22;;;;;;;18.37;7.20;;;;;;;-0.78;94.37;100533.41;5052868;28;20493;-70
2022/12/11 06:04:49;;;;;;;17.97;6.77;;;;;;;-0.69;94.69;100535.75;5057349;28;20480;-70
2022/12/11 06:07:15;;;;;;;17.80;7.77;;;;;;;-0.69;94.21;100530.44;5071734;28;20528;-70
2022/12/11 06:09:42;;;;;;;17.10;7.80;;;;;;;-0.77;94.14;100531.56;5053315;28;20541;-70
2022/12/11 06:12:09;;;;;;;15.40;6.03;;;;;;;-0.70;94.54;100542.09;5053771;28;20450;-70
2022/12/11 06:14:35;;;;;;;15.10;6.40;;;;;;;-0.76;94.93;100531.31;5053571;28;20971;-71
2022/12/11 06:17:02;;;;;;;18.40;6.20;;;;;;;-0.72;95.04;100529.03;5053284;28;20525;-70
2022/12/11 06:19:30;;;;;;;16.03;6.03;;;;;;;-0.73;94.22;100535.38;5052503;28;20490;-70
2022/12/11 06:21:56;;;;;;;17.13;6.93;;;;;;;-0.76;95.09;100531.31;5064947;28;20562;-70
2022/12/11 06:24:23;;;;;;;24.73;6.90;;;;;;;-0.67;95.00;100518.50;5058330;28;20536;-70
2022/12/11 06:26:49;;;;;;;22.40;6.90;;;;;;;-0.97;94.90;100525.69;5052526;28;20546;-70
2022/12/11 06:29:16;;;;;;;14.13;5.70;;;;;;;-0.96;96.32;100517.53;5052888;28;20445;-70
2022/12/11 06:31:43;;;;;;;22.80;6.70;;;;;;;-0.89;95.71;100526.19;5051661;28;22388;-70
2022/12/11 06:34:12;;;;;;;16.97;6.87;;;;;;;-0.76;95.30;100535.81;5051307;28;20574;-70
2022/12/11 06:36:40;;;;;;;15.30;6.00;;;;;;;-0.81;95.10;100533.03;5053045;28;20825;-70
2022/12/11 06:39:07;;;;;;;21.70;7.37;;;;;;;-0.86;95.68;100532.91;5051651;28;20881;-70
2022/12/11 06:41:34;;;;;;;18.00;7.00;;;;;;;-0.80;95.73;100532.00;5052641;28;20529;-70
2022/12/11 06:44:01;;;;;;;17.00;8.10;;;;;;;-0.83;95.33;100540.44;5051937;28;20533;-70
2022/12/11 06:46:27;;;;;;;25.87;8.30;;;;;;;-0.79;95.18;100545.09;5052874;28;20573;-69
2022/12/11 06:48:54;;;;;;;17.07;7.53;;;;;;;-0.77;94.20;100543.00;5052377;28;20477;-68
2022/12/11 06:51:23;;;;;;;13.73;5.67;;;;;;;-0.69;94.11;100541.06;5052615;28;21018;-72
2022/12/11 06:53:53;;;;;;;15.33;6.53;;;;;;;-0.77;93.57;100548.31;5052891;28;20581;-69
2022/12/11 06:56:20;;;;;;;15.17;6.07;;;;;;;-0.82;93.92;100537.56;5048921;28;20512;-69
2022/12/11 06:58:47;;;;;;;16.30;5.60;;;;;;;-0.86;93.83;100547.03;5051854;28;20462;-69
2022/12/11 07:01:16;;;;;;;17.97;7.50;;;;;;;-0.83;93.32;100549.25;5050069;28;20454;-70
2022/12/11 07:03:43;;;;;;;14.50;6.60;;;;;;;-0.95;93.19;100550.22;5051299;28;20482;-66
2022/12/11 07:06:10;;;;;;;16.27;6.63;;;;;;;-0.98;93.32;100545.34;5052436;28;20511;-70
2022/12/11 07:08:37;;;;;;;14.37;5.80;;;;;;;-1.03;93.79;100559.31;5053444;28;20491;-69
2022/12/11 07:11:07;;;;;;;13.17;5.87;;;;;;;-1.11;93.16;100546.34;5070567;28;20524;-69
2022/12/11 07:13:34;;;;;;;17.10;7.40;;;;;;;-1.06;93.62;100546.50;5050599;28;20974;-70
2022/12/11 07:16:03;;;;;;;18.17;7.20;;;;;;;-1.12;93.05;100540.22;5052552;28;20470;-70
2022/12/11 07:18:30;;;;;;;17.40;6.77;;;;;;;-1.18;92.81;100543.78;5057776;28;20460;-71
2022/12/11 07:20:58;;;;;;;17.10;6.50;;;;;;;-1.14;92.94;100541.50;5049251;28;21231;-70
2022/12/11 07:23:25;;;;;;;16.27;6.77;;;;;;;-1.10;92.33;100538.16;5050962;28;20948;-70
2022/12/11 07:25:52;;;;;;;15.03;6.07;;;;;;;-1.05;91.94;100537.50;5048819;28;20557;-70
2022/12/11 07:28:20;;;;;;;13.67;7.07;;;;;;;-1.00;91.67;100550.09;5051857;28;20549;-70
2022/12/11 07:30:47;;;;;;;14.97;5.53;;;;;;;-0.99;91.58;100541.88;5052374;28;20537;-70
2022/12/11 07:33:14;;;;;;;16.50;6.10;;;;;;;-1.02;90.49;100550.31;5050745;28;20951;-69
2022/12/11 07:35:40;;;;;;;17.07;5.93;;;;;;;-1.10;90.49;100554.09;5051539;28;20490;-69
2022/12/11 07:38:08;;;;;;;14.70;5.27;;;;;;;-1.04;89.92;100550.53;5052001;28;20644;-69
2022/12/11 07:40:34;;;;;;;14.90;5.20;;;;;;;-1.07;90.19;100553.63;5051902;28;20533;-71
2022/12/11 07:43:01;;;;;;;13.00;5.30;;;;;;;-1.10;89.11;100554.09;5052724;28;20545;-68
2022/12/11 07:45:29;;;;;;;13.30;5.73;;;;;;;-1.02;89.78;100563.59;5055657;28;20464;-70
2022/12/11 07:47:55;;;;;;;15.03;6.10;;;;;;;-1.09;88.24;100568.22;5053296;28;20894;-69
2022/12/11 07:50:22;;;;;;;10.93;4.63;;;;;;;-1.06;88.48;100565.09;5055460;28;20464;-68
2022/12/11 07:52:49;;;;;;;24.33;6.73;;;;;;;-1.10;88.41;100566.59;5054574;28;20508;-69
2022/12/11 07:55:16;;;;;;;12.03;5.33;;;;;;;-1.15;88.04;100558.44;5054083;28;20481;-68
2022/12/11 07:57:42;;;;;;;13.17;5.03;;;;;;;-1.16;88.72;100559.50;5054947;28;20537;-68
2022/12/11 08:00:10;;;;;;;13.63;5.53;;;;;;;-1.08;89.02;100561.84;5053050;28;20556;-68
2022/12/11 08:02:38;;;;;;;14.63;5.43;;;;;;;-1.06;89.56;100559.78;5054068;28;20458;-68
2022/12/11 08:05:06;;;;;;;14.47;5.73;;;;;;;-0.97;88.79;100563.75;5054577;28;20476;-70
2022/12/11 08:07:34;;;;;;;11.50;4.60;;;;;;;-0.99;88.11;100563.16;5055869;28;21031;-70
2022/12/11 08:10:00;;;;;;;12.27;5.03;;;;;;;-1.00;86.81;100556.22;5066978;28;20546;-69
2022/12/11 08:12:27;;;;;;;13.10;5.00;;;;;;;-0.99;87.40;100559.69;5053312;28;20545;-70
2022/12/11 08:14:53;;;;;;;16.37;5.50;;;;;;;-0.92;87.25;100549.78;5053934;28;21077;-70
2022/12/11 08:17:20;;;;;;;17.10;6.40;;;;;;;-1.03;86.87;100556.66;5054537;28;20548;-68
2022/12/11 08:19:48;;;;;;;16.10;5.50;;;;;;;-1.15;87.44;100556.63;5058556;28;20544;-68
2022/12/11 08:22:15;;;;;;;16.50;5.40;;;;;;;-1.11;87.24;100551.66;5035347;28;20522;-70
2022/12/11 08:24:41;;;;;;;17.27;5.80;;;;;;;-1.07;87.93;100552.84;5051530;28;20477;-70
2022/12/11 08:27:08;;;;;;;24.83;6.53;;;;;;;-1.06;87.59;100565.09;5053870;28;20553;-69
2022/12/11 08:29:35;;;;;;;12.37;4.53;;;;;;;-1.06;86.33;100557.13;5054105;28;20465;-70
2022/12/11 08:32:02;;;;;;;12.50;6.00;;;;;;;-1.11;87.63;100557.78;5054711;28;20466;-68
2022/12/11 08:34:28;;;;;;;14.70;5.20;;;;;;;-0.96;87.35;100560.06;5054191;28;20482;-69
2022/12/11 08:36:57;;;;;;;11.13;3.93;;;;;;;-0.89;87.49;100560.75;5054941;28;20525;-69
2022/12/11 08:39:24;;;;;;;20.33;5.30;;;;;;;-0.81;86.93;100571.06;5055177;28;20446;-69
2022/12/11 08:41:50;;;;;;;28.00;7.70;;;;;;;-0.80;87.29;100558.59;5055106;28;20442;-69
2022/12/11 08:44:17;;;;;;;11.70;5.30;;;;;;;-0.95;86.60;100567.00;5054690;28;20438;-69
2022/12/11 08:46:44;;;;;;;16.83;6.23;;;;;;;-0.99;87.46;100560.50;5055036;28;20473;-69
2022/12/11 08:49:11;;;;;;;11.90;4.50;;;;;;;-0.94;87.02;100560.63;5054967;28;20453;-69
2022/12/11 08:51:37;;;;;;;10.93;5.10;;;;;;;-0.81;86.74;100560.44;5054964;28;20441;-69
2022/12/11 08:54:05;;;;;;;12.70;4.93;;;;;;;-0.71;86.67;100573.19;5053670;28;20445;-70
2022/12/11 08:56:32;;;;;;;13.60;5.80;;;;;;;-0.76;85.99;100571.19;5077525;22;20535;-78
2022/12/11 08:59:00;;;;;;;13.83;6.27;;;;;;;-0.76;86.47;100565.09;5077010;28;20480;-79
2022/12/11 09:01:28;;;;;;;12.87;6.17;;;;;;;-0.66;86.08;100573.34;5076563;28;20533;-77
2022/12/11 09:03:56;;;;;;;11.57;5.83;;;;;;;-0.85;85.02;100567.25;5076076;28;20556;-77
2022/12/11 09:06:24;;;;;;;16.80;6.13;;;;;;;-0.76;85.83;100570.41;5075928;28;20793;-77
2022/12/11 09:08:53;;;;;;;23.37;6.50;;;;;;;-0.73;85.46;100569.16;5075645;28;20536;-77
2022/12/11 09:11:23;;;;;;;11.97;4.90;;;;;;;-0.74;84.91;100570.19;5075965;28;20536;-77
2022/12/11 09:13:50;;;;;;;13.73;5.30;;;;;;;-0.69;84.63;100570.31;5075499;28;20599;-77
2022/12/11 09:16:19;;;;;;;13.87;6.27;;;;;;;-0.68;85.45;100572.75;5075397;28;20517;-77
2022/12/11 09:18:46;;;;;;;15.83;6.00;;;;;;;-0.69;85.09;100570.31;5074614;28;20532;-76
2022/12/11 09:21:15;;;;;;;16.90;5.57;;;;;;;-0.70;85.86;100576.69;5074296;28;20481;-76
2022/12/11 09:23:43;;;;;;;15.53;5.83;;;;;;;-0.70;85.22;100584.66;5074575;28;20457;-76
2022/12/11 09:26:13;;;;;;;21.23;5.80;;;;;;;-0.58;84.75;100575.66;5074478;28;20553;-77
2022/12/11 09:28:42;;;;;;;15.40;5.90;;;;;;;-0.57;85.11;100573.81;5074786;28;20437;-76
2022/12/11 09:31:10;;;;;;;9.40;4.20;;;;;;;-0.56;84.43;100580.75;5074340;28;20452;-76
2022/12/11 09:33:36;;;;;;;13.30;4.50;;;;;;;-0.47;84.35;100563.44;5074002;28;20822;-76
2022/12/11 09:36:04;;;;;;;13.70;5.60;;;;;;;-0.38;83.95;100575.34;5074352;28;20519;-77
2022/12/11 09:38:32;;;;;;;11.73;5.03;;;;;;;-0.50;82.62;100563.88;5074134;28;20481;-76
2022/12/11 09:40:59;;;;;;;13.40;5.57;;;;;;;-0.47;82.82;100562.63;5074153;28;20469;-77
2022/12/11 09:43:36;;;;;;;15.20;5.80;;;;;;;-0.54;82.09;100563.50;5073700;28;20468;-76
2022/12/11 09:46:08;;;;;;;15.90;5.30;;;;;;;-0.57;82.37;100564.00;5073799;28;20937;-76
2022/12/11 09:48:36;;;;;;;12.53;5.00;;;;;;;-0.66;82.36;100554.72;5074084;28;20504;-76
2022/12/11 09:51:13;;;;;;;13.00;4.83;;;;;;;-0.64;82.33;100552.63;5074005;28;20536;-76
2022/12/11 09:53:39;;;;;;;16.97;5.43;;;;;;;-0.72;82.85;100547.63;5073927;28;20464;-76
2022/12/11 09:56:16;;;;;;;13.70;5.80;;;;;;;-0.69;82.91;100539.22;5073507;28;20487;-76
2022/12/11 09:58:58;;;;;;;13.10;5.37;;;;;;;-0.64;83.27;100549.16;5073872;28;20512;-76
2022/12/11 10:01:34;;;;;;;12.87;5.17;;;;;;;-0.76;82.72;100544.63;5073577;28;20472;-76
2022/12/11 10:04:18;;;;;;;13.83;5.50;;;;;;;-0.80;83.43;100542.63;5073436;28;20461;-76
2022/12/11 10:06:50;;;;;;;13.70;5.33;;;;;;;-0.93;84.13;100533.03;5073443;28;20827;-76
2022/12/11 10:09:24;;;;;;;10.20;4.00;;;;;;;-0.85;86.02;100542.50;5073393;28;20917;-76
2022/12/11 10:12:03;;;;;;;11.83;4.97;;;;;;;-0.76;86.03;100536.63;5073601;28;20433;-76
2022/12/11 10:14:44;;;;;;;11.57;4.77;;;;;;;-0.66;86.28;100538.75;5073143;28;20515;-76
2022/12/11 10:17:19;;;;;;;11.90;4.03;;;;;;;-0.63;85.16;100538.28;5073623;28;20457;-76
2022/12/11 10:19:46;;;;;;;15.60;5.53;;;;;;;-0.63;83.91;100535.63;5073271;28;20902;-76
2022/12/11 10:22:20;;;;;;;12.17;4.80;;;;;;;-0.73;82.85;100537.25;5073616;28;20442;-77
2022/12/11 10:24:54;;;;;;;13.87;5.70;;;;;;;-1.04;83.86;100525.81;5073440;28;20492;-77
2022/12/11 10:27:25;;;;;;;15.40;5.20;;;;;;;-1.04;83.43;100515.19;5073282;28;20933;-76
2022/12/11 10:29:59;;;;;;;11.17;5.23;;;;;;;-1.02;84.86;100513.09;5073512;28;20429;-76
2022/12/11 10:32:36;;;;;;;9.47;3.77;;;;;;;-0.83;84.86;100514.66;5073196;28;20791;-76
2022/12/11 10:35:05;;;;;;;13.50;4.90;;;;;;;-0.97;84.50;100518.56;5072994;28;20532;-76
2022/12/11 10:37:32;;;;;;;15.77;5.43;;;;;;;-1.06;85.83;100517.28;5073052;28;20852;-76
2022/12/11 10:39:59;;;;;;;11.33;4.33;;;;;;;-1.04;85.10;100517.84;5073130;28;20528;-76
2022/12/11 10:42:25;;;;;;;14.13;4.50;;;;;;;-1.07;84.45;100508.47;5073178;28;20532;-76
2022/12/11 10:44:57;;;;;;;15.63;6.10;;;;;;;-1.10;84.80;100510.78;5073027;28;20457;-76
2022/12/11 10:47:24;;;;;;;11.87;5.23;;;;;;;-1.25;85.92;100510.34;5072779;28;20897;-76
2022/12/11 10:49:54;;;;;;;13.57;5.60;;;;;;;-1.24;86.69;100514.63;5073159;28;20506;-76
2022/12/11 10:52:24;;;;;;;12.53;5.37;;;;;;;-1.18;86.68;100511.91;5073028;28;20449;-76
2022/12/11 10:54:58;;;;;;;10.40;4.47;;;;;;;-1.27;86.90;100510.59;5073557;28;20491;-77
2022/12/11 10:57:29;;;;;;;13.60;5.93;;;;;;;-1.19;87.57;100504.97;5073105;28;20449;-77
2022/12/11 10:59:57;;;;;;;16.17;5.27;;;;;;;-1.03;87.08;100506.97;5073254;28;20442;-77
2022/12/11 11:02:26;;;;;;;16.80;6.23;;;;;;;-0.91;86.38;100498.22;5073103;28;20479;-77
2022/12/11 11:04:57;;;;;;;12.87;5.40;;;;;;;-0.74;85.77;100493.06;5073211;28;20540;-77
2022/12/11 11:07:26;;;;;;;14.53;5.10;;;;;;;-0.79;85.49;100497.22;5073563;28;20449;-77
2022/12/11 11:10:05;;;;;;;13.50;4.80;;;;;;;-0.77;85.79;100487.16;5073146;28;20635;-77
2022/12/11 11:12:38;;;;;;;13.50;5.50;;;;;;;-0.70;85.82;100494.25;5075167;28;20516;-79
2022/12/11 11:15:07;;;;;;;13.03;5.57;;;;;;;-0.53;84.72;100495.19;5076884;28;20512;-79
2022/12/11 11:17:42;;;;;;;16.90;5.60;;;;;;;-0.47;84.70;100485.47;5076993;28;20922;-79
2022/12/11 11:20:16;;;;;;;13.30;5.07;;;;;;;-0.43;84.04;100489.28;5079229;28;20512;-79
2022/12/11 11:22:46;;;;;;;13.50;5.30;;;;;;;-0.44;83.81;100487.66;5077570;28;20510;-77
2022/12/11 11:25:19;;;;;;;10.57;4.07;;;;;;;-0.57;83.11;100481.53;5076752;28;20835;-77
2022/12/11 11:28:18;;;;;;;23.17;6.20;;;;;;;-0.68;83.38;100476.19;5077285;28;20424;-78
2022/12/11 11:30:58;;;;;;;15.60;5.60;;;;;;;-0.70;84.63;100470.31;5077342;28;20525;-77
2022/12/11 11:33:25;;;;;;;10.90;4.30;;;;;;;-0.71;84.49;100469.47;5076908;28;20513;-77
2022/12/11 11:35:56;;;;;;;15.87;6.37;;;;;;;-0.69;84.90;100463.94;5079330;28;20555;-79